METAR Data
IDs: Format: Raw Decoded Include TAF

Data at: 2334 UTC 26 Feb 2020

PTYA 262255Z 07010KT 11SM -SHRA SCT016TCU SCT130 BKN300 27/26 A2987 RMK SHRAB35 TCU W-NW-N SLP115 T02720256